Have a Safe July 4th! 

Flight Track Log - Related Links

Times and Time Zones

All times are in EDT time to prevent confusion due to time zone crossing. See the N5946C flight status page for this flight to view local times or setup timezone preferences in your user account.

Time Position Orientation Groundspeed Altitude Reporting Facility
EDT Latitude Longitude Course Direction KTS MPH feet Rate Location/Type
Thu 09:07:25 AM 43.1667 -79.1833 304° West 90 104 1,100  Level Toronto Center
Thu 09:08:25 AM 43.1500 -79.2000 216° Southwest 100 115 2,000 800 Climbing Toronto Center
Thu 09:09:25 AM 43.1167 -79.2000 180° South 110 127 2,700 700 Climbing Toronto Center
Thu 09:10:25 AM 43.1000 -79.2000 180° South 120 138 3,400 650 Climbing Toronto Center
Thu 09:11:25 AM 43.0667 -79.1833 160° South 120 138 4,000 300 Climbing Toronto Center
Thu 09:12:00 AM 43.0444 -78.9124 304° West  Level Estimated
Thu 09:12:25 AM 43.0667 -79.1167 90° East 150 173 4,000  Level Toronto Center
Thu 09:13:25 AM 43.0667 -79.0667 90° East 160 184 4,100 50 Climbing Toronto Center
Thu 09:14:25 AM 43.0833 -79.0000 71° East 170 196 4,100 -50 Level Toronto Center
Thu 09:15:25 AM 43.1000 -78.9333 71° East 170 196 4,000 -100 Descending Toronto Center
Thu 09:16:25 AM 43.1167 -78.8833 65° Northeast 170 196 3,900 50 Descending Toronto Center
Thu 09:17:25 AM 43.1333 -78.8333 65° Northeast 160 184 4,100 50 Climbing Toronto Center
Thu 09:18:25 AM 43.1500 -78.7667 71° East 160 184 4,000 -50 Descending Toronto Center
Thu 09:19:25 AM 43.1500 -78.7000 90° East 160 184 4,000 -300 Level Toronto Center
Thu 09:20:25 AM 43.1333 -78.6500 115° Southeast 170 196 3,400 -700 Descending Toronto Center
Thu 09:21:25 AM 43.1167 -78.6000 115° Southeast 170 196 2,600 -600 Descending Toronto Center
Thu 09:22:25 AM 43.0667 -78.5833 166° South 160 184 2,200 -133 Descending Toronto Center
Thu 09:22:55 AM 43.0667 -78.6000 270° West 125 144 2,400 133 Climbing Buffalo TRACON
Thu 09:23:55 AM 43.0333 -78.6167 200° South 108 124 2,400  Level Buffalo TRACON
Thu 09:24:49 AM 43.0167 -78.6333 216° Southwest 112 129 2,400 -222 Level Buffalo TRACON
Thu 09:25:43 AM 42.9833 -78.6667 216° Southwest 119 137 2,000 -579 Descending Buffalo TRACON
Thu 09:26:43 AM 42.9667 -78.7000 236° Southwest 99 114 1,300 -700 Descending Buffalo TRACON

Login

Don't have an account? Register now (free) for customized features, flight alerts, and more!